Le Roy, Minnesota
Current Conditions -  °F | °C
As of 8:55 PM on Thursday 27 Nov 2014 (Local Time) from KFKA Reporting Station
Broken Clouds Broken Clouds  
Wind Chill: -5°   Ceiling: 10000
Heat Index:   Visibility: 10mi
Dew Point: -1°   Wind: 5mph
Humidity: 77%   Direction: 130°SE
Pressure: 30.3"   Gusts: NA
Location:  43.51°N, 92.5°W
Report Text: KFKA 280255Z AUTO 13004KT 10SM BKN100 BKN120 M15/M19 A3030 RMK AO2 T11541186
Loading
Personal Weather Stations






























Interactive Weather Map New forecast layout! Learn more

10-Day Weather Forecast

Advertisements
Track Severe Weather on mobile